createdAt,value
2023-04-09T00:00:47.356Z,89.93
2023-04-09T00:03:04.432Z,89.77
2023-04-09T00:05:21.424Z,89.70
2023-04-09T00:07:38.416Z,89.77
2023-04-09T00:09:56.692Z,89.78
2023-04-09T00:12:13.922Z,89.68
2023-04-09T00:14:30.987Z,89.68
2023-04-09T00:16:48.042Z,90.05
2023-04-09T00:19:04.954Z,90.06
2023-04-09T00:21:21.987Z,90.03
2023-04-09T00:23:39.352Z,90.42
2023-04-09T00:25:56.399Z,90.21
2023-04-09T00:28:13.300Z,90.33
2023-04-09T00:30:30.578Z,90.35
2023-04-09T00:32:48.892Z,90.45
2023-04-09T00:35:06.338Z,90.46
2023-04-09T00:37:23.645Z,90.37
2023-04-09T00:39:40.598Z,90.76
2023-04-09T00:41:58.749Z,90.83
2023-04-09T00:44:16.001Z,90.83
2023-04-09T00:46:32.990Z,90.89
2023-04-09T00:48:50.652Z,90.88
2023-04-09T00:51:08.190Z,91.07
2023-04-09T00:53:25.143Z,90.98
2023-04-09T00:55:42.116Z,90.84
2023-04-09T00:58:00.057Z,90.97
2023-04-09T01:00:17.003Z,91.21
2023-04-09T01:02:34.070Z,91.33
2023-04-09T01:04:51.092Z,91.23
2023-04-09T01:07:08.109Z,91.00
2023-04-09T01:09:26.228Z,90.59
2023-04-09T01:11:43.277Z,90.80
2023-04-09T01:14:00.616Z,91.04
2023-04-09T01:16:17.931Z,91.25
2023-04-09T01:18:34.889Z,91.02
2023-04-09T01:20:56.348Z,91.12
2023-04-09T01:23:13.677Z,91.30
2023-04-09T01:25:31.961Z,91.21
2023-04-09T01:27:49.293Z,91.09
2023-04-09T01:30:06.323Z,91.01
2023-04-09T01:32:23.334Z,91.24
2023-04-09T01:34:40.399Z,91.06
2023-04-09T01:36:57.753Z,90.94
2023-04-09T01:39:14.805Z,90.81
2023-04-09T01:41:31.864Z,90.67
2023-04-09T01:43:48.779Z,91.04
2023-04-09T01:46:06.121Z,91.04
2023-04-09T01:48:23.096Z,91.27
2023-04-09T01:50:40.452Z,91.39
2023-04-09T01:52:58.491Z,91.42
2023-04-09T01:55:15.522Z,91.58
2023-04-09T01:57:32.584Z,91.39
2023-04-09T01:59:50.934Z,91.29
2023-04-09T02:02:08.302Z,91.82
2023-04-09T02:04:25.691Z,91.48
2023-04-09T02:06:42.978Z,91.66
2023-04-09T02:08:59.945Z,91.54
2023-04-09T02:11:17.062Z,91.73
2023-04-09T02:13:34.133Z,91.67
2023-04-09T02:15:51.160Z,91.49
2023-04-09T02:18:09.233Z,91.13
2023-04-09T02:20:26.290Z,91.54
2023-04-09T02:22:44.223Z,91.34
2023-04-09T02:25:01.487Z,91.46
2023-04-09T02:27:18.444Z,91.55
2023-04-09T02:29:35.749Z,91.63
2023-04-09T02:31:52.829Z,91.67
2023-04-09T02:34:09.901Z,91.60
2023-04-09T02:36:27.169Z,91.52
2023-04-09T02:38:44.207Z,91.20
2023-04-09T02:41:01.210Z,91.52
2023-04-09T02:43:18.298Z,91.70
2023-04-09T02:45:35.374Z,91.66
2023-04-09T02:47:52.482Z,91.92
2023-04-09T02:50:09.650Z,91.66
2023-04-09T02:52:26.604Z,91.70
2023-04-09T02:54:43.932Z,91.69
2023-04-09T02:57:01.073Z,91.45
2023-04-09T02:59:18.454Z,91.33
2023-04-09T03:01:35.811Z,91.30
2023-04-09T03:03:52.833Z,90.80
2023-04-09T03:06:10.207Z,90.01
2023-04-09T03:08:27.270Z,90.07
2023-04-09T03:10:44.613Z,89.80
2023-04-09T03:13:01.530Z,89.54
2023-04-09T03:15:19.503Z,89.85
2023-04-09T03:17:36.723Z,89.41
2023-04-09T03:19:54.060Z,89.74
2023-04-09T03:22:11.121Z,89.36
2023-04-09T03:24:28.082Z,88.72
2023-04-09T03:26:45.013Z,89.07
2023-04-09T03:29:02.363Z,89.16
2023-04-09T03:31:19.677Z,89.32
2023-04-09T03:33:37.045Z,89.36
2023-04-09T03:35:54.302Z,88.84
2023-04-09T03:38:11.274Z,89.38
2023-04-09T03:40:28.220Z,89.23
2023-04-09T03:42:45.316Z,88.81
2023-04-09T03:45:02.436Z,88.59
2023-04-09T03:47:19.614Z,88.23
2023-04-09T03:49:36.655Z,87.67
2023-04-09T03:51:53.932Z,87.59
2023-04-09T03:54:12.052Z,86.96
2023-04-09T03:56:29.360Z,87.10
2023-04-09T03:58:46.432Z,87.38
2023-04-09T04:01:03.446Z,87.02
2023-04-09T04:03:20.915Z,86.43
2023-04-09T04:05:37.902Z,87.28
2023-04-09T04:07:55.238Z,87.14
2023-04-09T04:10:12.245Z,87.17
2023-04-09T04:12:29.285Z,87.29
2023-04-09T04:14:46.494Z,86.84
2023-04-09T04:17:04.686Z,86.40
2023-04-09T04:19:21.686Z,86.53
2023-04-09T04:21:38.636Z,87.51
2023-04-09T04:23:55.670Z,87.33
2023-04-09T04:26:12.569Z,86.78
2023-04-09T04:28:29.775Z,87.90
2023-04-09T04:30:46.714Z,87.48
2023-04-09T04:33:03.722Z,87.90
2023-04-09T04:35:20.597Z,88.80
2023-04-09T04:37:37.787Z,89.06
2023-04-09T04:39:54.717Z,88.88
2023-04-09T04:42:11.985Z,89.63
2023-04-09T04:44:29.891Z,89.57
2023-04-09T04:46:46.808Z,89.25
2023-04-09T04:49:03.742Z,90.47
2023-04-09T04:51:20.684Z,90.00
2023-04-09T04:53:37.552Z,90.24
2023-04-09T04:55:54.445Z,90.26
2023-04-09T04:58:11.373Z,90.18
2023-04-09T05:00:28.413Z,90.33
2023-04-09T05:02:45.764Z,89.42
2023-04-09T05:05:02.828Z,89.93
2023-04-09T05:07:19.851Z,90.61
2023-04-09T05:09:36.815Z,90.41
2023-04-09T05:11:53.722Z,90.41
2023-04-09T05:14:11.015Z,89.83
2023-04-09T05:16:27.939Z,90.81
2023-04-09T05:18:44.989Z,89.95
2023-04-09T05:21:01.840Z,90.44
2023-04-09T05:23:18.752Z,91.05
2023-04-09T05:25:35.787Z,91.39
2023-04-09T05:27:52.856Z,91.48
2023-04-09T05:30:10.168Z,91.35
2023-04-09T05:32:27.238Z,91.17
2023-04-09T05:34:44.158Z,90.14
2023-04-09T05:37:01.409Z,90.30
2023-04-09T05:39:18.374Z,91.00
2023-04-09T05:41:35.438Z,89.94
2023-04-09T05:43:52.817Z,91.08
2023-04-09T05:46:10.183Z,90.86
2023-04-09T05:48:27.542Z,90.29
2023-04-09T05:50:54.067Z,91.41
2023-04-09T05:53:12.225Z,90.76
2023-04-09T05:55:29.314Z,91.54
2023-04-09T05:57:46.239Z,91.59
2023-04-09T06:00:03.235Z,91.21
2023-04-09T06:02:20.441Z,91.08
2023-04-09T06:04:37.653Z,91.03
2023-04-09T06:06:54.766Z,90.81
2023-04-09T06:09:11.771Z,91.24
2023-04-09T06:11:28.711Z,91.27
2023-04-09T06:13:45.966Z,90.96
2023-04-09T06:16:03.069Z,89.94
2023-04-09T06:18:20.113Z,89.91
2023-04-09T06:20:37.247Z,91.10
2023-04-09T06:22:54.527Z,90.91
2023-04-09T06:25:11.710Z,90.76
2023-04-09T06:27:28.691Z,90.57
2023-04-09T06:29:45.708Z,90.05
2023-04-09T06:32:02.996Z,91.23
2023-04-09T06:34:21.224Z,91.35
2023-04-09T06:36:38.244Z,91.58
2023-04-09T06:38:55.254Z,91.31
2023-04-09T06:41:12.471Z,91.68
2023-04-09T06:43:29.527Z,91.53
2023-04-09T06:45:46.517Z,91.66
2023-04-09T06:48:03.603Z,90.73
2023-04-09T06:50:21.717Z,90.48
2023-04-09T06:52:38.784Z,90.93
2023-04-09T06:54:55.779Z,90.63
2023-04-09T06:57:13.258Z,89.67
2023-04-09T06:59:30.532Z,89.36
2023-04-09T07:01:47.830Z,89.17
2023-04-09T07:04:04.994Z,88.52
2023-04-09T07:06:22.083Z,87.68
2023-04-09T07:08:39.312Z,88.17
2023-04-09T07:10:56.631Z,87.58
2023-04-09T07:13:13.867Z,87.01
2023-04-09T07:15:31.168Z,87.78
2023-04-09T07:17:49.229Z,87.17
2023-04-09T07:20:06.522Z,85.58
2023-04-09T07:22:23.535Z,85.09
2023-04-09T07:24:40.571Z,84.08
2023-04-09T07:26:57.488Z,83.60
2023-04-09T07:29:14.377Z,82.64
2023-04-09T07:31:34.592Z,83.42
2023-04-09T07:33:52.937Z,83.09
2023-04-09T07:36:10.072Z,82.39
2023-04-09T07:38:27.349Z,81.20
2023-04-09T07:40:45.439Z,81.17
2023-04-09T07:43:02.575Z,81.19
2023-04-09T07:45:19.776Z,80.31
2023-04-09T07:47:36.727Z,77.78
2023-04-09T07:49:53.667Z,76.83
2023-04-09T07:52:10.563Z,77.05
2023-04-09T07:54:27.760Z,75.00
2023-04-09T07:56:44.763Z,75.28
2023-04-09T07:59:01.798Z,74.69
2023-04-09T08:01:18.857Z,74.45
2023-04-09T08:03:35.840Z,72.97
2023-04-09T08:05:53.222Z,72.59
2023-04-09T08:08:10.280Z,71.89
2023-04-09T08:10:28.199Z,71.38
2023-04-09T08:12:45.134Z,69.95
2023-04-09T08:15:03.094Z,70.76
2023-04-09T08:17:19.996Z,69.17
2023-04-09T08:19:38.296Z,70.02
2023-04-09T08:21:56.170Z,69.80
2023-04-09T08:24:13.237Z,70.13
2023-04-09T08:26:30.246Z,69.25
2023-04-09T08:28:47.266Z,68.83
2023-04-09T08:31:04.370Z,68.95
2023-04-09T08:33:21.256Z,68.55
2023-04-09T08:35:38.289Z,66.70
2023-04-09T08:37:55.369Z,67.94
2023-04-09T08:40:13.646Z,66.99
2023-04-09T08:42:30.975Z,66.42
2023-04-09T08:44:47.964Z,65.93
2023-04-09T08:47:05.322Z,65.28
2023-04-09T08:49:23.184Z,65.62
2023-04-09T08:51:40.251Z,65.00
2023-04-09T08:53:57.561Z,64.55
2023-04-09T08:56:14.489Z,63.66
2023-04-09T08:58:31.516Z,62.76
2023-04-09T09:00:48.386Z,63.49
2023-04-09T09:03:05.571Z,63.07
2023-04-09T09:05:22.720Z,61.81
2023-04-09T09:07:40.708Z,61.40
2023-04-09T09:09:57.602Z,61.05
2023-04-09T09:12:14.591Z,61.26
2023-04-09T09:14:31.674Z,61.97
2023-04-09T09:16:48.770Z,59.78
2023-04-09T09:19:06.655Z,59.72
2023-04-09T09:21:23.589Z,57.56
2023-04-09T09:23:40.878Z,58.86
2023-04-09T09:25:58.841Z,57.10
2023-04-09T09:28:16.076Z,59.42
2023-04-09T09:30:33.599Z,59.09
2023-04-09T09:32:50.991Z,56.46
2023-04-09T09:35:07.998Z,57.25
2023-04-09T09:37:25.214Z,54.64
2023-04-09T09:39:42.279Z,55.27
2023-04-09T09:42:00.297Z,55.60
2023-04-09T09:44:17.331Z,55.61
2023-04-09T09:46:34.675Z,53.22
2023-04-09T09:48:53.302Z,52.93
2023-04-09T09:51:10.865Z,53.08
2023-04-09T09:53:28.090Z,53.27
2023-04-09T09:55:46.331Z,52.96
2023-04-09T09:58:03.255Z,53.16
2023-04-09T10:00:21.082Z,52.63
2023-04-09T10:02:39.696Z,54.18
2023-04-09T10:04:56.611Z,53.63
2023-04-09T10:07:13.822Z,52.58
2023-04-09T10:09:30.729Z,52.36
2023-04-09T10:11:48.022Z,53.40
2023-04-09T10:14:04.956Z,52.39
2023-04-09T10:16:22.005Z,53.61
2023-04-09T10:18:38.974Z,51.22
2023-04-09T10:20:56.017Z,51.70
2023-04-09T10:23:14.215Z,52.75
2023-04-09T10:25:31.202Z,52.38
2023-04-09T10:27:48.450Z,55.05
2023-04-09T10:30:05.438Z,54.95
2023-04-09T10:32:22.814Z,54.30
2023-04-09T10:34:40.081Z,53.64
2023-04-09T10:36:57.422Z,53.93
2023-04-09T10:39:14.640Z,53.94
2023-04-09T10:41:31.578Z,54.98
2023-04-09T10:43:48.529Z,53.73
2023-04-09T10:46:05.508Z,54.35
2023-04-09T10:48:22.583Z,54.66
2023-04-09T10:50:39.555Z,53.59
2023-04-09T10:52:56.621Z,53.75
2023-04-09T10:55:13.695Z,54.75
2023-04-09T10:57:31.574Z,54.57
2023-04-09T10:59:48.616Z,54.16
2023-04-09T11:02:05.567Z,54.86
2023-04-09T11:04:23.000Z,54.65
2023-04-09T11:06:40.066Z,53.41
2023-04-09T11:08:57.372Z,53.92
2023-04-09T11:11:14.290Z,53.63
2023-04-09T11:13:31.309Z,55.61
2023-04-09T11:15:48.434Z,54.45
2023-04-09T11:18:05.589Z,56.25
2023-04-09T11:20:22.671Z,55.15
2023-04-09T11:22:39.584Z,54.62
2023-04-09T11:24:56.438Z,55.47
2023-04-09T11:27:13.469Z,53.03
2023-04-09T11:29:30.323Z,52.42
2023-04-09T11:31:47.816Z,51.56
2023-04-09T11:34:04.780Z,51.57
2023-04-09T11:36:21.762Z,53.36
2023-04-09T11:38:38.884Z,52.22
2023-04-09T11:40:55.883Z,50.91
2023-04-09T11:43:12.835Z,52.87
2023-04-09T11:45:29.862Z,53.16
2023-04-09T11:47:46.924Z,51.30
2023-04-09T11:50:03.953Z,53.42
2023-04-09T11:52:21.006Z,52.15
2023-04-09T11:54:38.007Z,53.30
2023-04-09T11:56:55.048Z,50.47
2023-04-09T11:59:12.150Z,51.05
2023-04-09T12:01:29.188Z,52.96
2023-04-09T12:03:46.242Z,51.56
2023-04-09T12:06:03.482Z,53.50
2023-04-09T12:08:21.096Z,52.22
2023-04-09T12:10:38.103Z,53.88
2023-04-09T12:12:56.087Z,53.98
2023-04-09T12:15:13.129Z,52.99
2023-04-09T12:17:30.098Z,51.33
2023-04-09T12:19:46.987Z,50.50
2023-04-09T12:22:04.197Z,49.85
2023-04-09T12:24:21.461Z,49.92
2023-04-09T12:26:38.722Z,50.56
2023-04-09T12:28:57.034Z,49.49
2023-04-09T12:31:15.370Z,50.03
2023-04-09T12:33:32.643Z,47.58
2023-04-09T12:35:50.745Z,47.21
2023-04-09T12:38:07.735Z,50.08
2023-04-09T12:40:24.690Z,49.22
2023-04-09T12:42:41.741Z,49.44
2023-04-09T12:44:58.663Z,49.55
2023-04-09T12:47:15.568Z,50.96
2023-04-09T12:49:32.765Z,50.23
2023-04-09T12:51:50.782Z,51.25
2023-04-09T12:54:08.002Z,48.85
2023-04-09T12:56:25.230Z,49.82
2023-04-09T12:58:42.145Z,48.88
2023-04-09T13:00:59.139Z,47.99
2023-04-09T13:03:16.179Z,48.81
2023-04-09T13:05:33.323Z,48.18
2023-04-09T13:07:50.340Z,49.30
2023-04-09T13:10:07.593Z,49.94
2023-04-09T13:12:24.682Z,48.78
2023-04-09T13:14:41.694Z,49.19
2023-04-09T13:16:58.627Z,49.23
2023-04-09T13:19:15.702Z,47.96
2023-04-09T13:21:33.002Z,49.31
2023-04-09T13:23:50.033Z,48.47
2023-04-09T13:26:07.093Z,49.14
2023-04-09T13:28:24.068Z,48.77
2023-04-09T13:30:41.202Z,49.51
2023-04-09T13:32:59.240Z,48.18
2023-04-09T13:35:16.228Z,49.03
2023-04-09T13:37:33.294Z,50.01
2023-04-09T13:39:51.402Z,49.75
2023-04-09T13:42:13.589Z,50.26
2023-04-09T13:44:31.254Z,49.33
2023-04-09T13:46:48.332Z,49.83
2023-04-09T13:49:05.552Z,50.18
2023-04-09T13:51:22.557Z,49.42
2023-04-09T13:53:39.549Z,48.85
2023-04-09T13:55:56.533Z,48.95
2023-04-09T13:58:13.870Z,48.76
2023-04-09T14:00:30.890Z,48.69
2023-04-09T14:02:47.989Z,49.77
2023-04-09T14:05:05.094Z,49.79
2023-04-09T14:07:22.421Z,48.23
2023-04-09T14:09:40.639Z,49.00
2023-04-09T14:11:58.906Z,48.24
2023-04-09T14:14:16.207Z,48.47
2023-04-09T14:16:33.425Z,48.48
2023-04-09T14:18:50.785Z,48.04
2023-04-09T14:21:09.972Z,47.08
2023-04-09T14:23:27.460Z,45.47
2023-04-09T14:25:44.529Z,46.06
2023-04-09T14:28:01.565Z,46.95
2023-04-09T14:30:18.883Z,45.33
2023-04-09T14:32:35.940Z,46.84
2023-04-09T14:34:53.327Z,48.11
2023-04-09T14:37:10.298Z,46.77
2023-04-09T14:39:27.637Z,45.82
2023-04-09T14:41:44.553Z,47.52
2023-04-09T14:44:01.634Z,48.70
2023-04-09T14:46:18.920Z,46.43
2023-04-09T14:48:36.187Z,47.78
2023-04-09T14:50:54.190Z,47.09
2023-04-09T14:53:11.492Z,47.96
2023-04-09T14:55:28.383Z,47.38
2023-04-09T14:57:46.372Z,47.30
2023-04-09T15:00:03.454Z,48.33
2023-04-09T15:02:20.716Z,47.73
2023-04-09T15:04:38.009Z,48.34
2023-04-09T15:06:55.098Z,47.39
2023-04-09T15:09:11.993Z,45.89
2023-04-09T15:11:28.929Z,48.10
2023-04-09T15:13:46.206Z,48.81
2023-04-09T15:16:03.310Z,48.57
2023-04-09T15:18:21.745Z,47.01
2023-04-09T15:20:38.835Z,47.83
2023-04-09T15:22:55.898Z,48.73
2023-04-09T15:25:14.367Z,47.76
2023-04-09T15:27:31.853Z,46.91
2023-04-09T15:29:48.807Z,45.28
2023-04-09T15:32:05.883Z,46.68
2023-04-09T15:34:23.840Z,45.32
2023-04-09T15:36:40.899Z,45.45
2023-04-09T15:38:58.093Z,46.40
2023-04-09T15:41:14.978Z,45.78
2023-04-09T15:43:32.848Z,46.33
2023-04-09T15:45:49.843Z,46.12
2023-04-09T15:48:07.201Z,45.58
2023-04-09T15:50:24.144Z,46.67
2023-04-09T15:52:41.013Z,46.31
2023-04-09T15:54:58.214Z,45.77
2023-04-09T15:57:15.220Z,45.71
2023-04-09T15:59:32.146Z,45.73
2023-04-09T16:01:49.295Z,45.38
2023-04-09T16:04:06.393Z,46.92
2023-04-09T16:06:24.561Z,46.60
2023-04-09T16:08:41.794Z,45.46
2023-04-09T16:10:58.980Z,44.56
2023-04-09T16:13:16.039Z,44.85
2023-04-09T16:15:32.986Z,45.48
2023-04-09T16:17:49.986Z,44.68
2023-04-09T16:20:07.272Z,45.86
2023-04-09T16:22:24.291Z,46.15
2023-04-09T16:24:41.468Z,45.51
2023-04-09T16:26:58.489Z,45.53
2023-04-09T16:29:15.553Z,45.92
2023-04-09T16:31:33.513Z,45.21
2023-04-09T16:33:50.762Z,46.87
2023-04-09T16:36:07.756Z,46.61
2023-04-09T16:38:25.069Z,46.28
2023-04-09T16:40:43.185Z,46.50
2023-04-09T16:43:00.249Z,46.17
2023-04-09T16:45:17.160Z,46.23
2023-04-09T16:47:34.257Z,46.23
2023-04-09T16:49:51.652Z,46.98
2023-04-09T16:52:08.916Z,46.44
2023-04-09T16:54:26.170Z,45.57
2023-04-09T16:56:43.144Z,46.39
2023-04-09T16:59:00.226Z,47.18
2023-04-09T17:01:17.653Z,46.31
2023-04-09T17:03:34.715Z,47.82
2023-04-09T17:05:51.770Z,46.94
2023-04-09T17:08:08.716Z,45.87
2023-04-09T17:10:26.644Z,47.74
2023-04-09T17:12:43.500Z,47.18
2023-04-09T17:15:00.547Z,45.84
2023-04-09T17:17:17.564Z,46.79
2023-04-09T17:19:34.966Z,48.77
2023-04-09T17:21:51.930Z,46.70
2023-04-09T17:24:08.894Z,47.78
2023-04-09T17:26:26.934Z,46.51
2023-04-09T17:28:44.077Z,48.88
2023-04-09T17:31:01.423Z,50.09
2023-04-09T17:33:18.358Z,50.64
2023-04-09T17:35:35.445Z,52.33
2023-04-09T17:37:52.570Z,52.93
2023-04-09T17:40:09.657Z,55.26
2023-04-09T17:42:26.721Z,56.01
2023-04-09T17:44:43.871Z,55.82
2023-04-09T17:47:01.109Z,57.02
2023-04-09T17:49:19.445Z,58.53
2023-04-09T17:51:36.504Z,58.35
2023-04-09T17:53:53.572Z,59.57
2023-04-09T17:56:10.591Z,59.76
2023-04-09T17:58:27.475Z,59.94
2023-04-09T18:00:44.417Z,61.08
2023-04-09T18:03:02.701Z,62.09
2023-04-09T18:05:20.404Z,62.50
2023-04-09T18:07:37.449Z,63.12
2023-04-09T18:09:54.483Z,63.84
2023-04-09T18:12:11.745Z,65.01
2023-04-09T18:14:29.015Z,64.04
2023-04-09T18:16:45.986Z,65.31
2023-04-09T18:19:02.916Z,65.38
2023-04-09T18:21:19.956Z,64.98
2023-04-09T18:23:37.260Z,65.62
2023-04-09T18:25:54.563Z,67.29
2023-04-09T18:28:11.806Z,68.20
2023-04-09T18:30:29.061Z,68.52
2023-04-09T18:32:47.165Z,68.16
2023-04-09T18:35:04.541Z,67.77
2023-04-09T18:37:21.825Z,68.92
2023-04-09T18:39:38.851Z,68.50
2023-04-09T18:41:55.788Z,68.77
2023-04-09T18:44:12.790Z,69.25
2023-04-09T18:46:29.675Z,69.65
2023-04-09T18:48:46.963Z,69.91
2023-04-09T18:51:03.947Z,70.16
2023-04-09T18:53:21.210Z,70.27
2023-04-09T18:55:38.567Z,71.23
2023-04-09T18:57:55.494Z,70.70
2023-04-09T19:00:12.437Z,71.28
2023-04-09T19:02:29.739Z,70.84
2023-04-09T19:04:47.045Z,71.95
2023-04-09T19:07:04.147Z,72.03
2023-04-09T19:09:21.146Z,72.65
2023-04-09T19:11:38.195Z,71.84
2023-04-09T19:13:55.106Z,72.51
2023-04-09T19:16:12.423Z,71.58
2023-04-09T19:18:29.452Z,72.36
2023-04-09T19:20:46.741Z,72.95
2023-04-09T19:23:03.817Z,72.16
2023-04-09T19:25:20.779Z,71.96
2023-04-09T19:27:37.794Z,72.31
2023-04-09T19:29:54.703Z,73.19
2023-04-09T19:32:11.782Z,73.01
2023-04-09T19:34:28.984Z,73.23
2023-04-09T19:36:46.313Z,73.42
2023-04-09T19:39:04.314Z,74.58
2023-04-09T19:41:22.258Z,74.57
2023-04-09T19:43:39.516Z,74.46
2023-04-09T19:45:56.623Z,74.62
2023-04-09T19:48:13.668Z,74.71
2023-04-09T19:50:30.591Z,74.75
2023-04-09T19:52:47.506Z,74.82
2023-04-09T19:55:04.592Z,75.05
2023-04-09T19:57:21.884Z,75.62
2023-04-09T19:59:39.151Z,75.55
2023-04-09T20:01:56.578Z,75.68
2023-04-09T20:04:13.627Z,75.91
2023-04-09T20:06:30.915Z,76.25
2023-04-09T20:08:47.909Z,76.51
2023-04-09T20:11:04.950Z,76.23
2023-04-09T20:13:22.052Z,76.41
2023-04-09T20:15:39.356Z,76.44
2023-04-09T20:17:56.602Z,76.65
2023-04-09T20:20:13.935Z,76.69
2023-04-09T20:22:30.854Z,77.02
2023-04-09T20:24:47.854Z,77.04
2023-04-09T20:27:04.744Z,76.71
2023-04-09T20:29:21.952Z,77.02
2023-04-09T20:31:39.344Z,77.51
2023-04-09T20:33:56.269Z,77.69
2023-04-09T20:36:13.521Z,77.63
2023-04-09T20:38:30.600Z,77.77
2023-04-09T20:40:47.902Z,77.85
2023-04-09T20:43:05.116Z,77.91
2023-04-09T20:45:22.389Z,78.26
2023-04-09T20:47:39.455Z,78.30
2023-04-09T20:49:56.484Z,78.30
2023-04-09T20:52:13.687Z,78.49
2023-04-09T20:54:30.749Z,78.21
2023-04-09T20:56:48.755Z,78.02
2023-04-09T20:59:05.786Z,78.38
2023-04-09T21:01:22.714Z,78.97
2023-04-09T21:03:39.929Z,79.36
2023-04-09T21:05:57.582Z,78.89
2023-04-09T21:08:14.923Z,78.79
2023-04-09T21:10:32.230Z,79.18
2023-04-09T21:12:49.165Z,79.19
2023-04-09T21:15:07.401Z,79.61
2023-04-09T21:17:24.495Z,78.89
2023-04-09T21:19:41.560Z,79.76
2023-04-09T21:21:58.866Z,80.27
2023-04-09T21:24:15.788Z,80.17
2023-04-09T21:26:48.691Z,79.49
2023-04-09T21:29:06.735Z,80.40
2023-04-09T21:31:24.209Z,80.34
2023-04-09T21:33:41.257Z,80.16
2023-04-09T21:35:58.236Z,80.18
2023-04-09T21:38:15.191Z,80.38
2023-04-09T21:40:32.145Z,80.18
2023-04-09T21:42:49.090Z,80.51
2023-04-09T21:45:06.087Z,81.17
2023-04-09T21:47:23.177Z,80.70
2023-04-09T21:49:40.777Z,81.01
2023-04-09T21:51:57.972Z,81.58
2023-04-09T21:54:15.265Z,82.15
2023-04-09T21:56:32.352Z,81.09
2023-04-09T21:58:49.408Z,82.59
2023-04-09T22:01:13.043Z,82.10
2023-04-09T22:03:36.573Z,82.27
2023-04-09T22:05:54.055Z,82.92
2023-04-09T22:08:11.349Z,82.99
2023-04-09T22:10:28.405Z,83.10
2023-04-09T22:12:46.047Z,83.47
2023-04-09T22:15:04.060Z,82.27
2023-04-09T22:17:21.018Z,83.25
2023-04-09T22:19:37.922Z,82.71
2023-04-09T22:21:55.150Z,82.80
2023-04-09T22:24:13.129Z,83.24
2023-04-09T22:26:30.385Z,83.61
2023-04-09T22:28:48.297Z,83.75
2023-04-09T22:31:05.659Z,83.87
2023-04-09T22:33:22.864Z,82.88
2023-04-09T22:35:40.057Z,83.36
2023-04-09T22:37:58.239Z,82.85
2023-04-09T22:40:15.578Z,83.71
2023-04-09T22:42:32.798Z,83.28
2023-04-09T22:44:49.735Z,84.09
2023-04-09T22:47:06.773Z,83.36
2023-04-09T22:49:24.075Z,83.45
2023-04-09T22:51:41.851Z,83.48
2023-04-09T22:53:58.917Z,84.49
2023-04-09T22:56:15.960Z,83.88
2023-04-09T22:58:33.043Z,84.46
2023-04-09T23:00:50.298Z,83.47
2023-04-09T23:03:07.802Z,84.44
2023-04-09T23:05:25.205Z,83.87
2023-04-09T23:07:42.155Z,84.12
2023-04-09T23:09:59.172Z,83.73
2023-04-09T23:12:16.109Z,83.69
2023-04-09T23:14:33.078Z,84.69
2023-04-09T23:16:50.304Z,85.07
2023-04-09T23:19:07.622Z,84.37
2023-04-09T23:21:24.635Z,84.62
2023-04-09T23:23:41.694Z,84.77
2023-04-09T23:25:58.703Z,85.28
2023-04-09T23:28:15.959Z,85.22
2023-04-09T23:30:32.870Z,85.61
2023-04-09T23:32:49.768Z,85.14
2023-04-09T23:35:06.711Z,84.88
2023-04-09T23:37:23.575Z,84.80
2023-04-09T23:39:40.468Z,85.61
2023-04-09T23:41:57.349Z,84.93
2023-04-09T23:44:14.634Z,85.41
2023-04-09T23:46:31.679Z,85.73
2023-04-09T23:48:48.951Z,84.76
2023-04-09T23:51:05.889Z,85.52
2023-04-09T23:53:22.980Z,85.47
2023-04-09T23:55:40.913Z,85.64
2023-04-09T23:57:58.283Z,84.69
